createdAt,value
2018-07-22T00:00:24.067Z,23.00
2018-07-22T00:02:53.086Z,22.99
2018-07-22T00:05:21.623Z,22.95
2018-07-22T00:07:51.384Z,22.91
2018-07-22T00:10:27.400Z,22.91
2018-07-22T00:12:56.312Z,22.88
2018-07-22T00:15:25.555Z,22.87
2018-07-22T00:17:54.785Z,22.89
2018-07-22T00:20:23.332Z,22.93
2018-07-22T00:22:51.875Z,22.90
2018-07-22T00:25:20.427Z,22.94
2018-07-22T00:27:50.121Z,22.91
2018-07-22T00:30:18.616Z,22.93
2018-07-22T00:32:47.312Z,22.88
2018-07-22T00:35:16.099Z,22.84
2018-07-22T00:37:44.689Z,22.78
2018-07-22T00:40:13.195Z,22.74
2018-07-22T00:42:42.288Z,22.68
2018-07-22T00:45:13.808Z,22.65
2018-07-22T00:47:44.090Z,22.61
2018-07-22T00:50:13.196Z,22.57
2018-07-22T00:52:41.808Z,22.56
2018-07-22T00:55:10.827Z,22.58
2018-07-22T00:57:39.324Z,22.56
2018-07-22T01:00:08.871Z,22.57
2018-07-22T01:02:37.687Z,22.53
2018-07-22T01:05:06.647Z,22.54
2018-07-22T01:07:37.240Z,22.55
2018-07-22T01:10:07.207Z,22.44
2018-07-22T01:12:35.809Z,22.46
2018-07-22T01:15:05.213Z,22.52
2018-07-22T01:17:34.558Z,22.53
2018-07-22T01:20:05.140Z,22.58
2018-07-22T01:22:33.955Z,22.66
2018-07-22T01:25:08.969Z,22.71
2018-07-22T01:27:37.556Z,22.76
2018-07-22T01:30:07.807Z,22.82
2018-07-22T01:32:36.357Z,22.82
2018-07-22T01:35:04.971Z,22.86
2018-07-22T01:37:33.587Z,22.86
2018-07-22T01:40:02.275Z,22.82
2018-07-22T01:42:30.887Z,22.82
2018-07-22T01:44:59.449Z,22.83
2018-07-22T01:47:28.601Z,22.83
2018-07-22T01:49:57.096Z,22.86
2018-07-22T01:52:26.108Z,22.87
2018-07-22T01:54:55.266Z,22.90
2018-07-22T01:57:23.865Z,22.90
2018-07-22T01:59:52.448Z,22.96
2018-07-22T02:02:21.087Z,22.98
2018-07-22T02:04:50.686Z,22.99
2018-07-22T02:07:19.305Z,23.01
2018-07-22T02:09:48.631Z,22.99
2018-07-22T02:12:18.466Z,23.03
2018-07-22T02:14:46.969Z,22.99
2018-07-22T02:17:15.556Z,23.01
2018-07-22T02:19:44.147Z,23.05
2018-07-22T02:22:13.035Z,23.03
2018-07-22T02:24:42.492Z,23.02
2018-07-22T02:27:11.107Z,23.00
2018-07-22T02:29:39.569Z,23.01
2018-07-22T02:32:08.352Z,22.97
2018-07-22T02:34:37.074Z,23.02
2018-07-22T02:37:05.572Z,22.97
2018-07-22T02:39:34.184Z,22.96
2018-07-22T02:42:02.724Z,22.96
2018-07-22T02:44:31.328Z,22.95
2018-07-22T02:46:59.825Z,22.94
2018-07-22T02:49:28.391Z,22.96
2018-07-22T02:51:57.797Z,22.98
2018-07-22T02:54:26.684Z,22.96
2018-07-22T02:56:55.828Z,22.95
2018-07-22T02:59:24.327Z,22.93
2018-07-22T03:01:52.766Z,22.88
2018-07-22T03:04:21.647Z,22.87
2018-07-22T03:06:50.164Z,22.86
2018-07-22T03:09:18.779Z,22.90
2018-07-22T03:11:47.306Z,22.89
2018-07-22T03:14:16.453Z,22.90
2018-07-22T03:16:44.961Z,22.87
2018-07-22T03:19:13.633Z,22.90
2018-07-22T03:21:42.164Z,22.87
2018-07-22T03:24:10.736Z,22.87
2018-07-22T03:26:39.234Z,22.83
2018-07-22T03:29:08.576Z,22.80
2018-07-22T03:31:37.893Z,22.76
2018-07-22T03:34:06.810Z,22.75
2018-07-22T03:36:35.705Z,22.62
2018-07-22T03:39:06.030Z,22.52
2018-07-22T03:41:34.585Z,22.36
2018-07-22T03:44:03.089Z,22.29
2018-07-22T03:46:31.599Z,22.22
2018-07-22T03:49:00.115Z,22.12
2018-07-22T03:51:28.654Z,22.08
2018-07-22T03:53:57.228Z,22.03
2018-07-22T03:56:25.730Z,21.95
2018-07-22T03:58:54.185Z,21.94
2018-07-22T04:01:22.774Z,21.95
2018-07-22T04:03:51.333Z,21.93
2018-07-22T04:06:19.792Z,21.95
2018-07-22T04:08:48.291Z,21.94
2018-07-22T04:11:16.788Z,21.97
2018-07-22T04:13:45.328Z,21.95
2018-07-22T04:16:13.799Z,21.87
2018-07-22T04:18:51.526Z,21.83
2018-07-22T04:21:20.584Z,21.83
2018-07-22T04:23:50.067Z,21.86
2018-07-22T04:26:18.997Z,21.88
2018-07-22T04:28:47.549Z,21.96
2018-07-22T04:31:16.180Z,22.04
2018-07-22T04:33:44.756Z,22.12
2018-07-22T04:36:13.713Z,22.19
2018-07-22T04:38:43.086Z,22.25
2018-07-22T04:41:13.044Z,22.23
2018-07-22T04:43:42.922Z,22.20
2018-07-22T04:46:11.956Z,22.20
2018-07-22T04:48:40.532Z,22.24
2018-07-22T04:51:09.033Z,22.29
2018-07-22T04:53:37.683Z,22.36
2018-07-22T04:56:06.209Z,22.43
2018-07-22T04:58:34.845Z,22.39
2018-07-22T05:01:03.370Z,22.42
2018-07-22T05:03:31.851Z,22.41
2018-07-22T05:06:00.376Z,22.43
2018-07-22T05:08:28.978Z,22.46
2018-07-22T05:10:57.567Z,22.49
2018-07-22T05:13:26.153Z,22.55
2018-07-22T05:15:54.781Z,22.58
2018-07-22T05:18:23.844Z,22.59
2018-07-22T05:20:52.352Z,22.63
2018-07-22T05:23:21.511Z,22.64
2018-07-22T05:25:49.970Z,22.64
2018-07-22T05:28:19.388Z,22.66
2018-07-22T05:30:47.845Z,22.70
2018-07-22T05:33:17.342Z,22.72
2018-07-22T05:35:46.030Z,22.76
2018-07-22T05:38:15.308Z,22.82
2018-07-22T05:40:44.106Z,22.88
2018-07-22T05:43:12.667Z,22.93
2018-07-22T05:45:41.260Z,22.98
2018-07-22T05:48:09.867Z,23.08
2018-07-22T05:50:38.982Z,23.15
2018-07-22T05:53:08.377Z,23.21
2018-07-22T05:55:37.146Z,23.31
2018-07-22T05:58:06.605Z,23.40
2018-07-22T06:00:35.090Z,23.48
2018-07-22T06:03:05.478Z,23.59
2018-07-22T06:05:36.586Z,23.65
2018-07-22T06:08:05.467Z,23.75
2018-07-22T06:10:33.917Z,23.85
2018-07-22T06:13:02.460Z,23.96
2018-07-22T06:15:30.963Z,24.05
2018-07-22T06:18:00.635Z,24.07
2018-07-22T06:20:29.136Z,24.15
2018-07-22T06:22:57.628Z,24.24
2018-07-22T06:25:26.570Z,24.36
2018-07-22T06:27:55.038Z,24.41
2018-07-22T06:30:23.868Z,24.45
2018-07-22T06:32:52.639Z,24.53
2018-07-22T06:35:21.516Z,24.58
2018-07-22T06:37:50.445Z,24.61
2018-07-22T06:40:19.645Z,24.67
2018-07-22T06:42:49.318Z,24.65
2018-07-22T06:45:18.757Z,24.69
2018-07-22T06:47:47.974Z,24.71
2018-07-22T06:50:16.578Z,24.73
2018-07-22T06:52:47.343Z,24.78
2018-07-22T06:55:17.840Z,24.84
2018-07-22T06:57:46.366Z,24.92
2018-07-22T07:00:15.953Z,24.94
2018-07-22T07:02:44.856Z,24.98
2018-07-22T07:05:13.893Z,24.98
2018-07-22T07:07:43.640Z,25.03
2018-07-22T07:10:12.278Z,25.05
2018-07-22T07:12:40.815Z,25.03
2018-07-22T07:15:09.468Z,25.13
2018-07-22T07:17:38.123Z,25.16
2018-07-22T07:20:06.661Z,25.23
2018-07-22T07:22:35.877Z,25.25
2018-07-22T07:25:04.931Z,25.31
2018-07-22T07:27:35.085Z,25.35
2018-07-22T07:30:04.589Z,25.38
2018-07-22T07:32:35.601Z,25.41
2018-07-22T07:35:05.075Z,25.40
2018-07-22T07:37:33.833Z,25.39
2018-07-22T07:40:02.364Z,25.28
2018-07-22T07:42:31.889Z,25.18
2018-07-22T07:45:01.606Z,25.11
2018-07-22T07:47:32.230Z,25.08
2018-07-22T07:50:00.843Z,25.08
2018-07-22T07:52:29.532Z,25.11
2018-07-22T07:55:00.236Z,25.14
2018-07-22T07:57:28.827Z,25.20
2018-07-22T07:59:58.704Z,25.21
2018-07-22T08:02:27.370Z,25.24
2018-07-22T08:04:56.272Z,25.33
2018-07-22T08:07:24.988Z,25.44
2018-07-22T08:09:53.622Z,25.53
2018-07-22T08:12:22.303Z,25.61
2018-07-22T08:14:50.993Z,25.62
2018-07-22T08:17:19.678Z,25.69
2018-07-22T08:19:48.537Z,25.73
2018-07-22T08:22:17.683Z,25.83
2018-07-22T08:24:47.769Z,25.95
2018-07-22T08:27:16.361Z,26.09
2018-07-22T08:29:45.046Z,26.08
2018-07-22T08:32:13.470Z,26.12
2018-07-22T08:34:42.110Z,26.17
2018-07-22T08:37:10.692Z,26.09
2018-07-22T08:39:39.321Z,26.03
2018-07-22T08:42:08.011Z,26.08
2018-07-22T08:44:37.594Z,26.08
2018-07-22T08:47:06.467Z,26.17
2018-07-22T08:49:35.048Z,26.22
2018-07-22T08:52:04.133Z,26.29
2018-07-22T08:54:32.748Z,26.34
2018-07-22T08:57:01.358Z,26.30
2018-07-22T08:59:30.089Z,26.28
2018-07-22T09:01:58.609Z,26.25
2018-07-22T09:04:28.321Z,26.22
2018-07-22T09:06:56.927Z,26.18
2018-07-22T09:09:25.553Z,26.15
2018-07-22T09:11:54.341Z,26.16
2018-07-22T09:14:22.909Z,26.16
2018-07-22T09:16:51.344Z,26.22
2018-07-22T09:19:19.791Z,26.27
2018-07-22T09:21:48.624Z,26.36
2018-07-22T09:24:17.689Z,26.39
2018-07-22T09:26:46.228Z,26.34
2018-07-22T09:29:14.940Z,26.19
2018-07-22T09:31:43.437Z,26.18
2018-07-22T09:34:12.204Z,26.23
2018-07-22T09:36:40.888Z,26.27
2018-07-22T09:39:11.854Z,26.32
2018-07-22T09:41:41.143Z,26.27
2018-07-22T09:44:09.616Z,26.23
2018-07-22T09:46:38.187Z,26.29
2018-07-22T09:49:06.624Z,26.43
2018-07-22T09:51:35.116Z,26.49
2018-07-22T09:54:04.444Z,26.45
2018-07-22T09:56:34.994Z,26.51
2018-07-22T09:59:04.346Z,26.62
2018-07-22T10:01:32.933Z,26.70
2018-07-22T10:04:01.489Z,26.73
2018-07-22T10:06:30.007Z,26.79
2018-07-22T10:08:58.742Z,26.84
2018-07-22T10:11:28.056Z,26.69
2018-07-22T10:13:58.647Z,26.73
2018-07-22T10:16:27.441Z,26.67
2018-07-22T10:18:56.809Z,26.79
2018-07-22T10:21:27.104Z,26.80
2018-07-22T10:23:55.822Z,26.81
2018-07-22T10:26:24.412Z,26.84
2018-07-22T10:28:53.809Z,26.83
2018-07-22T10:31:22.806Z,26.78
2018-07-22T10:33:52.077Z,26.88
2018-07-22T10:36:21.039Z,27.04
2018-07-22T10:38:52.285Z,27.07
2018-07-22T10:41:21.245Z,27.10
2018-07-22T10:43:49.895Z,27.09
2018-07-22T10:46:18.424Z,27.17
2018-07-22T10:48:47.391Z,27.15
2018-07-22T10:51:16.059Z,27.19
2018-07-22T10:53:47.241Z,27.25
2018-07-22T10:56:17.050Z,27.36
2018-07-22T10:58:46.957Z,27.39
2018-07-22T11:01:16.429Z,27.30
2018-07-22T11:03:45.049Z,27.34
2018-07-22T11:06:14.106Z,27.50
2018-07-22T11:08:42.610Z,27.67
2018-07-22T11:11:11.209Z,27.59
2018-07-22T11:13:39.745Z,27.71
2018-07-22T11:16:08.944Z,27.82
2018-07-22T11:18:37.476Z,27.82
2018-07-22T11:21:06.081Z,27.65
2018-07-22T11:23:35.446Z,27.62
2018-07-22T11:26:04.210Z,27.71
2018-07-22T11:28:33.301Z,27.96
2018-07-22T11:31:02.851Z,28.06
2018-07-22T11:33:32.201Z,28.14
2018-07-22T11:36:00.917Z,28.10
2018-07-22T11:38:29.605Z,28.12
2018-07-22T11:40:58.180Z,28.18
2018-07-22T11:43:26.758Z,28.25
2018-07-22T11:45:55.538Z,28.35
2018-07-22T11:48:25.090Z,28.33
2018-07-22T11:50:53.600Z,28.36
2018-07-22T11:53:22.169Z,28.44
2018-07-22T11:55:50.644Z,28.51
2018-07-22T11:58:20.008Z,28.59
2018-07-22T12:00:49.769Z,28.57
2018-07-22T12:03:20.327Z,28.55
2018-07-22T12:05:49.313Z,28.54
2018-07-22T12:08:18.603Z,28.51
2018-07-22T12:10:47.200Z,28.66
2018-07-22T12:13:15.760Z,28.70
2018-07-22T12:15:44.564Z,28.70
2018-07-22T12:18:13.153Z,28.83
2018-07-22T12:20:42.014Z,28.99
2018-07-22T12:23:11.461Z,29.11
2018-07-22T12:25:39.981Z,29.23
2018-07-22T12:28:08.621Z,29.25
2018-07-22T12:30:37.163Z,29.28
2018-07-22T12:33:05.721Z,28.98
2018-07-22T12:35:34.366Z,29.05
2018-07-22T12:38:03.048Z,29.20
2018-07-22T12:40:31.624Z,29.32
2018-07-22T12:43:00.220Z,29.52
2018-07-22T12:45:29.364Z,29.74
2018-07-22T12:47:58.852Z,29.75
2018-07-22T12:50:28.349Z,29.59
2018-07-22T12:52:57.910Z,29.77
2018-07-22T12:55:26.760Z,29.95
2018-07-22T12:57:55.381Z,30.00
2018-07-22T13:00:23.959Z,29.96
2018-07-22T13:02:52.448Z,29.89
2018-07-22T13:05:21.880Z,30.05
2018-07-22T13:07:52.014Z,29.99
2018-07-22T13:10:21.691Z,30.03
2018-07-22T13:12:50.434Z,29.98
2018-07-22T13:15:19.063Z,29.69
2018-07-22T13:17:47.680Z,29.48
2018-07-22T13:20:16.797Z,29.60
2018-07-22T13:22:45.301Z,29.61
2018-07-22T13:25:16.412Z,29.79
2018-07-22T13:27:46.017Z,30.07
2018-07-22T13:30:14.646Z,30.17
2018-07-22T13:32:43.193Z,29.99
2018-07-22T13:35:12.088Z,29.87
2018-07-22T13:37:41.329Z,29.96
2018-07-22T13:40:10.926Z,29.91
2018-07-22T13:42:40.622Z,29.72
2018-07-22T13:45:09.148Z,29.52
2018-07-22T13:47:37.645Z,29.40
2018-07-22T13:50:06.641Z,29.73
2018-07-22T13:52:36.313Z,29.71
2018-07-22T13:55:04.852Z,29.66
2018-07-22T13:57:33.588Z,29.66
2018-07-22T14:00:02.176Z,29.47
2018-07-22T14:02:30.811Z,29.24
2018-07-22T14:04:59.421Z,29.13
2018-07-22T14:07:28.114Z,29.37
2018-07-22T14:09:57.436Z,29.71
2018-07-22T14:12:25.952Z,29.93
2018-07-22T14:14:54.979Z,29.79
2018-07-22T14:17:23.490Z,29.51
2018-07-22T14:19:52.820Z,29.27
2018-07-22T14:22:21.784Z,29.57
2018-07-22T14:24:50.429Z,29.72
2018-07-22T14:27:19.110Z,29.79
2018-07-22T14:29:47.716Z,30.04
2018-07-22T14:32:16.651Z,30.36
2018-07-22T14:34:45.307Z,30.33
2018-07-22T14:37:14.011Z,30.24
2018-07-22T14:39:42.703Z,30.14
2018-07-22T14:42:11.442Z,30.10
2018-07-22T14:44:40.089Z,30.01
2018-07-22T14:47:09.537Z,30.08
2018-07-22T14:49:38.201Z,30.26
2018-07-22T14:52:06.806Z,30.34
2018-07-22T14:54:35.751Z,30.03
2018-07-22T14:57:04.490Z,29.95
2018-07-22T14:59:33.844Z,30.05
2018-07-22T15:02:02.457Z,29.93
2018-07-22T15:04:32.912Z,29.72
2018-07-22T15:07:01.478Z,29.87
2018-07-22T15:09:30.111Z,29.80
2018-07-22T15:11:59.487Z,29.96
2018-07-22T15:14:28.903Z,29.94
2018-07-22T15:16:57.672Z,29.96
2018-07-22T15:19:26.371Z,30.05
2018-07-22T15:21:55.059Z,30.32
2018-07-22T15:24:24.511Z,30.10
2018-07-22T15:26:53.126Z,29.74
2018-07-22T15:29:21.824Z,29.51
2018-07-22T15:31:50.579Z,29.32
2018-07-22T15:34:19.204Z,29.21
2018-07-22T15:36:47.876Z,29.39
2018-07-22T15:39:16.619Z,29.73
2018-07-22T15:41:45.208Z,30.21
2018-07-22T15:44:13.977Z,30.44
2018-07-22T15:46:42.592Z,30.66
2018-07-22T15:49:11.202Z,30.65
2018-07-22T15:51:39.863Z,30.14
2018-07-22T15:54:08.444Z,29.62
2018-07-22T15:56:36.903Z,29.37
2018-07-22T15:59:05.734Z,29.13
2018-07-22T16:01:34.330Z,29.00
2018-07-22T16:04:02.887Z,28.92
2018-07-22T16:06:31.593Z,29.00
2018-07-22T16:09:00.862Z,29.01
2018-07-22T16:11:29.541Z,29.04
2018-07-22T16:13:58.102Z,28.93
2018-07-22T16:16:27.816Z,29.27
2018-07-22T16:18:58.590Z,29.77
2018-07-22T16:21:28.157Z,29.95
2018-07-22T16:23:56.838Z,29.67
2018-07-22T16:26:25.489Z,29.53
2018-07-22T16:28:54.320Z,29.36
2018-07-22T16:31:22.874Z,29.18
2018-07-22T16:33:51.522Z,29.10
2018-07-22T16:36:21.013Z,28.86
2018-07-22T16:38:49.676Z,28.78
2018-07-22T16:41:19.078Z,28.75
2018-07-22T16:43:48.087Z,28.93
2018-07-22T16:46:16.720Z,29.33
2018-07-22T16:48:45.441Z,29.51
2018-07-22T16:51:15.547Z,29.61
2018-07-22T16:53:45.111Z,29.67
2018-07-22T16:56:13.683Z,29.59
2018-07-22T16:58:53.065Z,29.50
2018-07-22T17:01:21.739Z,29.45
2018-07-22T17:03:50.266Z,29.46
2018-07-22T17:06:19.673Z,29.51
2018-07-22T17:08:48.325Z,29.33
2018-07-22T17:11:17.678Z,29.08
2018-07-22T17:13:46.462Z,28.91
2018-07-22T17:16:15.212Z,28.81
2018-07-22T17:18:43.806Z,28.99
2018-07-22T17:21:13.030Z,29.06
2018-07-22T17:23:41.782Z,29.05
2018-07-22T17:26:10.420Z,28.92
2018-07-22T17:28:39.005Z,28.85
2018-07-22T17:31:07.916Z,28.77
2018-07-22T17:33:40.271Z,28.68
2018-07-22T17:36:08.926Z,28.62
2018-07-22T17:38:37.578Z,28.65
2018-07-22T17:41:07.374Z,28.61
2018-07-22T17:43:36.249Z,28.56
2018-07-22T17:46:05.617Z,28.49
2018-07-22T17:48:34.176Z,28.32
2018-07-22T17:51:02.988Z,28.26
2018-07-22T17:53:31.575Z,28.29
2018-07-22T17:56:01.431Z,28.25
2018-07-22T17:58:30.146Z,28.21
2018-07-22T18:00:58.819Z,28.09
2018-07-22T18:03:32.051Z,27.99
2018-07-22T18:06:01.824Z,27.88
2018-07-22T18:08:30.613Z,27.72
2018-07-22T18:10:59.080Z,27.60
2018-07-22T18:13:28.553Z,27.55
2018-07-22T18:15:57.672Z,27.53
2018-07-22T18:18:26.333Z,27.48
2018-07-22T18:20:55.050Z,27.43
2018-07-22T18:23:23.622Z,27.42
2018-07-22T18:25:52.344Z,27.37
2018-07-22T18:28:20.985Z,27.29
2018-07-22T18:30:50.205Z,27.20
2018-07-22T18:33:18.797Z,27.22
2018-07-22T18:35:47.347Z,27.20
2018-07-22T18:38:16.876Z,27.17
2018-07-22T18:40:45.447Z,27.10
2018-07-22T18:43:15.032Z,27.08
2018-07-22T18:45:43.645Z,27.09
2018-07-22T18:48:12.257Z,27.06
2018-07-22T18:50:41.448Z,27.03
2018-07-22T18:53:09.982Z,26.96
2018-07-22T18:55:38.757Z,26.89
2018-07-22T18:58:08.193Z,26.82
2018-07-22T19:00:37.381Z,26.70
2018-07-22T19:03:06.024Z,26.67
2018-07-22T19:05:34.727Z,26.66
2018-07-22T19:08:03.477Z,26.71
2018-07-22T19:10:32.336Z,26.67
2018-07-22T19:13:00.985Z,26.58
2018-07-22T19:15:30.127Z,26.50
2018-07-22T19:17:58.766Z,26.44
2018-07-22T19:20:28.216Z,26.37
2018-07-22T19:22:56.884Z,26.37
2018-07-22T19:25:26.097Z,26.32
2018-07-22T19:27:55.505Z,26.29
2018-07-22T19:30:25.425Z,26.25
2018-07-22T19:32:54.465Z,26.24
2018-07-22T19:35:23.024Z,26.22
2018-07-22T19:37:51.773Z,26.13
2018-07-22T19:40:20.511Z,26.11
2018-07-22T19:42:49.153Z,26.05
2018-07-22T19:45:18.047Z,26.03
2018-07-22T19:47:47.291Z,26.03
2018-07-22T19:50:16.162Z,25.98
2018-07-22T19:52:44.924Z,25.86
2018-07-22T19:55:14.118Z,25.87
2018-07-22T19:57:42.760Z,25.78
2018-07-22T20:00:11.389Z,25.75
2018-07-22T20:02:40.813Z,25.73
2018-07-22T20:05:09.576Z,25.71
2018-07-22T20:07:38.276Z,25.67
2018-07-22T20:10:06.875Z,25.66
2018-07-22T20:12:36.342Z,25.62
2018-07-22T20:15:04.927Z,25.61
2018-07-22T20:17:50.354Z,25.59
2018-07-22T20:20:22.023Z,25.53
2018-07-22T20:22:53.375Z,25.41
2018-07-22T20:25:24.827Z,25.37
2018-07-22T20:27:55.660Z,25.32
2018-07-22T20:30:31.469Z,25.28
2018-07-22T20:33:00.597Z,25.27
2018-07-22T20:35:30.444Z,25.19
2018-07-22T20:38:02.266Z,25.15
2018-07-22T20:40:33.666Z,25.06
2018-07-22T20:43:02.233Z,25.03
2018-07-22T20:45:30.829Z,25.02
2018-07-22T20:47:59.926Z,24.93
2018-07-22T20:50:31.498Z,24.95
2018-07-22T20:53:04.978Z,24.92
2018-07-22T20:55:35.889Z,24.91
2018-07-22T20:58:04.597Z,24.82
2018-07-22T21:00:35.185Z,24.66
2018-07-22T21:03:03.827Z,24.65
2018-07-22T21:05:34.006Z,24.60
2018-07-22T21:08:03.569Z,24.56
2018-07-22T21:10:32.295Z,24.49
2018-07-22T21:13:15.158Z,24.45
2018-07-22T21:15:43.794Z,24.45
2018-07-22T21:18:12.691Z,24.42
2018-07-22T21:20:41.752Z,24.43
2018-07-22T21:23:10.852Z,24.46
2018-07-22T21:25:42.018Z,24.48
2018-07-22T21:28:11.427Z,24.51
2018-07-22T21:30:40.187Z,24.46
2018-07-22T21:33:08.996Z,24.28
2018-07-22T21:35:37.783Z,24.16
2018-07-22T21:38:06.479Z,24.04
2018-07-22T21:40:36.052Z,24.03
2018-07-22T21:43:05.256Z,24.04
2018-07-22T21:45:33.928Z,24.06
2018-07-22T21:48:02.848Z,24.07
2018-07-22T21:50:33.354Z,24.10
2018-07-22T21:53:02.015Z,24.13
2018-07-22T21:55:32.059Z,24.03
2018-07-22T21:58:00.827Z,23.99
2018-07-22T22:00:35.089Z,23.98
2018-07-22T22:03:04.775Z,23.94
2018-07-22T22:05:33.986Z,23.94
2018-07-22T22:08:02.630Z,23.89
2018-07-22T22:10:31.139Z,23.84
2018-07-22T22:13:00.000Z,23.83
2018-07-22T22:15:31.715Z,23.87
2018-07-22T22:18:02.494Z,23.87
2018-07-22T22:20:31.590Z,23.83
2018-07-22T22:23:00.750Z,23.82
2018-07-22T22:25:29.996Z,23.83
2018-07-22T22:27:59.599Z,23.82
2018-07-22T22:30:28.089Z,23.81
2018-07-22T22:32:56.571Z,23.79
2018-07-22T22:35:25.941Z,23.79
2018-07-22T22:37:55.022Z,23.75
2018-07-22T22:40:24.742Z,23.69
2018-07-22T22:42:53.399Z,23.64
2018-07-22T22:45:22.231Z,23.60
2018-07-22T22:47:50.805Z,23.55
2018-07-22T22:50:19.350Z,23.51
2018-07-22T22:52:48.688Z,23.50
2018-07-22T22:55:17.915Z,23.48
2018-07-22T22:58:55.376Z,23.44
2018-07-22T23:01:24.957Z,23.40
2018-07-22T23:03:54.623Z,23.34
2018-07-22T23:06:23.167Z,23.34
2018-07-22T23:08:51.722Z,23.33
2018-07-22T23:11:20.275Z,23.32
2018-07-22T23:13:48.998Z,23.27
2018-07-22T23:16:18.620Z,23.26
2018-07-22T23:18:48.975Z,23.16
2018-07-22T23:21:17.854Z,23.17
2018-07-22T23:23:46.888Z,23.12
2018-07-22T23:26:15.811Z,23.10
2018-07-22T23:28:44.414Z,23.08
2018-07-22T23:31:12.951Z,23.09
2018-07-22T23:33:41.850Z,23.01
2018-07-22T23:36:11.879Z,22.92
2018-07-22T23:38:42.539Z,22.72
2018-07-22T23:41:11.405Z,22.75
2018-07-22T23:43:40.499Z,22.73
2018-07-22T23:46:10.369Z,22.81
2018-07-22T23:48:39.041Z,22.86
2018-07-22T23:51:07.574Z,22.85
2018-07-22T23:53:36.216Z,22.83
2018-07-22T23:56:04.795Z,22.85
2018-07-22T23:58:33.406Z,22.88
